Weather at Fiq Airfield

Public forecast

Using degrees Celsius for public forecast. Weather courtesy of forecast.io.

Closest aviation weather report (METAR) to Fiq Airfield

Closest report is Ben Ya'akov Airport, 13.8 nm (25.6 km) NNW. Retrieved 2021/10/22 02:50 UTC (54 minutes ago):

LLIB 220250Z AUTO VRB03KT CAVOK 15/08 Q1018 RMK FEW085

Closest aviation forecast (TAF) to Fiq Airfield

Closest forecast is Ben Ya'akov Airport, 13.8 nm (25.6 km) NNW. Retrieved 2021-10-22 03:00 UTC (44 minutes ago):

TAF TAF LLIB 220257Z 2203/2224 VRB03KT CAVOK BECMG 2205/2207 16007KT BECMG 2211/2213 33014KT BECMG 2217/2219 34005KT TX29/2212Z TN15/2203Z